createdAt,value
2022-11-19T00:02:01.416Z,0.51
2022-11-19T00:04:29.423Z,0.50
2022-11-19T00:06:57.343Z,0.45
2022-11-19T00:09:25.389Z,0.37
2022-11-19T00:12:11.722Z,0.29
2022-11-19T00:14:39.707Z,0.24
2022-11-19T00:17:07.426Z,0.19
2022-11-19T00:19:35.273Z,0.05
2022-11-19T00:22:03.044Z,-0.04
2022-11-19T00:24:31.051Z,-0.11
2022-11-19T00:26:58.904Z,-0.15
2022-11-19T00:29:26.696Z,-0.18
2022-11-19T00:31:54.563Z,-0.23
2022-11-19T00:34:22.400Z,-0.28
2022-11-19T00:36:50.955Z,-0.32
2022-11-19T00:39:19.148Z,-0.36
2022-11-19T00:41:47.178Z,-0.38
2022-11-19T00:44:14.932Z,-0.39
2022-11-19T00:46:42.744Z,-0.38
2022-11-19T00:49:10.810Z,-0.37
2022-11-19T00:51:38.652Z,-0.38
2022-11-19T00:54:06.506Z,-0.40
2022-11-19T00:56:34.382Z,-0.41
2022-11-19T00:59:02.215Z,-0.38
2022-11-19T01:01:30.113Z,-0.33
2022-11-19T01:03:58.012Z,-0.30
2022-11-19T01:06:26.048Z,-0.26
2022-11-19T01:08:54.000Z,-0.24
2022-11-19T01:11:25.093Z,-0.24
2022-11-19T01:13:53.609Z,-0.26
2022-11-19T01:16:30.165Z,-0.28
2022-11-19T01:18:58.199Z,-0.33
2022-11-19T01:21:28.853Z,-0.39
2022-11-19T01:23:58.254Z,-0.48
2022-11-19T01:26:27.241Z,-0.54
2022-11-19T01:28:55.753Z,-0.55
2022-11-19T01:31:29.048Z,-0.56
2022-11-19T01:33:57.080Z,-0.65
2022-11-19T01:36:27.885Z,-0.76
2022-11-19T01:38:56.566Z,-0.83
2022-11-19T01:41:29.908Z,-0.85
2022-11-19T01:44:00.382Z,-0.85
2022-11-19T01:46:30.920Z,-0.85
2022-11-19T01:49:12.954Z,-0.83
2022-11-19T01:52:02.884Z,-0.85
2022-11-19T01:54:41.515Z,-0.82
2022-11-19T01:57:12.699Z,-0.73
2022-11-19T01:59:41.149Z,-0.78
2022-11-19T02:02:09.090Z,-0.76
2022-11-19T02:04:37.109Z,-0.77
2022-11-19T02:07:05.147Z,-0.82
2022-11-19T02:09:33.045Z,-0.85
2022-11-19T02:12:19.505Z,-0.80
2022-11-19T02:14:56.620Z,-0.77
2022-11-19T02:18:02.414Z,-0.71
2022-11-19T02:20:59.732Z,-0.67
2022-11-19T02:23:37.309Z,-0.71
2022-11-19T02:26:35.679Z,-0.75
2022-11-19T02:29:29.469Z,-0.70
2022-11-19T02:31:58.723Z,-0.67
2022-11-19T02:34:30.809Z,-0.75
2022-11-19T02:37:05.103Z,-0.77
2022-11-19T02:39:39.870Z,-0.85
2022-11-19T02:42:31.293Z,-0.89
2022-11-19T02:45:06.513Z,-0.92
2022-11-19T02:47:40.915Z,-1.00
2022-11-19T02:50:14.438Z,-1.10
2022-11-19T02:52:44.213Z,-1.20
2022-11-19T02:55:13.628Z,-1.20
2022-11-19T02:57:44.693Z,-1.16
2022-11-19T03:00:31.777Z,-1.21
2022-11-19T03:03:30.743Z,-1.21
2022-11-19T03:06:12.914Z,-1.23
2022-11-19T03:08:40.845Z,-1.23
2022-11-19T03:11:28.104Z,-1.24
2022-11-19T03:14:24.717Z,-1.19
2022-11-19T03:16:58.888Z,-1.14
2022-11-19T03:19:50.849Z,-1.10
2022-11-19T03:22:21.762Z,-1.07
2022-11-19T03:24:58.244Z,-1.09
2022-11-19T03:27:39.093Z,-1.13
2022-11-19T03:30:08.045Z,-1.15
2022-11-19T03:36:56.559Z,-1.06
2022-11-19T03:39:24.416Z,-1.05
2022-11-19T03:41:54.131Z,-1.05
2022-11-19T03:44:26.775Z,-1.06
2022-11-19T03:47:04.971Z,-1.10
2022-11-19T03:49:35.233Z,-1.18
2022-11-19T03:52:12.755Z,-1.30
2022-11-19T03:54:41.341Z,-1.27
2022-11-19T03:57:12.199Z,-1.29
2022-11-19T03:59:40.291Z,-1.24
2022-11-19T04:02:10.118Z,-1.20
2022-11-19T04:04:38.970Z,-1.21
2022-11-19T04:07:09.365Z,-1.28
2022-11-19T04:09:38.355Z,-1.33
2022-11-19T04:12:07.738Z,-1.34
2022-11-19T04:14:35.555Z,-1.30
2022-11-19T04:17:03.330Z,-1.25
2022-11-19T04:19:31.052Z,-1.23
2022-11-19T04:21:58.776Z,-1.20
2022-11-19T04:24:26.762Z,-1.17
2022-11-19T04:26:54.490Z,-1.19
2022-11-19T04:29:22.369Z,-1.23
2022-11-19T04:31:50.208Z,-1.28
2022-11-19T04:34:17.943Z,-1.34
2022-11-19T04:36:45.985Z,-1.40
2022-11-19T04:39:13.838Z,-1.48
2022-11-19T04:41:41.621Z,-1.58
2022-11-19T04:44:09.356Z,-1.67
2022-11-19T04:46:37.138Z,-1.70
2022-11-19T04:49:04.881Z,-1.72
2022-11-19T04:51:32.608Z,-1.65
2022-11-19T04:54:00.392Z,-1.61
2022-11-19T04:56:28.202Z,-1.58
2022-11-19T04:58:55.965Z,-1.53
2022-11-19T05:01:23.897Z,-1.52
2022-11-19T05:03:51.832Z,-1.51
2022-11-19T05:06:19.551Z,-1.52
2022-11-19T05:08:47.299Z,-1.58
2022-11-19T05:11:15.057Z,-1.61
2022-11-19T05:13:42.872Z,-1.59
2022-11-19T05:16:10.612Z,-1.60
2022-11-19T05:18:38.471Z,-1.63
2022-11-19T05:21:06.446Z,-1.66
2022-11-19T05:23:34.220Z,-1.65
2022-11-19T05:26:01.931Z,-1.61
2022-11-19T05:28:38.398Z,-1.61
2022-11-19T05:31:08.126Z,-1.63
2022-11-19T05:33:35.910Z,-1.64
2022-11-19T05:36:03.856Z,-1.68
2022-11-19T05:38:31.680Z,-1.72
2022-11-19T05:40:59.374Z,-1.75
2022-11-19T05:43:27.199Z,-1.80
2022-11-19T05:45:54.995Z,-1.88
2022-11-19T05:48:22.713Z,-1.92
2022-11-19T05:50:50.433Z,-1.91
2022-11-19T05:53:18.194Z,-1.93
2022-11-19T05:55:45.942Z,-1.92
2022-11-19T05:58:13.974Z,-1.88
2022-11-19T06:00:41.749Z,-1.85
2022-11-19T06:03:09.953Z,-1.86
2022-11-19T06:05:40.560Z,-1.89
2022-11-19T06:08:08.623Z,-1.84
2022-11-19T06:10:36.528Z,-1.85
2022-11-19T06:13:04.330Z,-1.83
2022-11-19T06:15:32.101Z,-1.83
2022-11-19T06:17:59.863Z,-1.84
2022-11-19T06:20:27.713Z,-1.84
2022-11-19T06:22:55.483Z,-1.80
2022-11-19T06:25:23.222Z,-1.72
2022-11-19T06:27:51.011Z,-1.70
2022-11-19T06:30:18.768Z,-1.69
2022-11-19T06:32:46.522Z,-1.68
2022-11-19T06:35:14.623Z,-1.68
2022-11-19T06:37:42.404Z,-1.68
2022-11-19T06:40:11.013Z,-1.67
2022-11-19T06:42:38.944Z,-1.69
2022-11-19T06:45:12.496Z,-1.78
2022-11-19T06:47:41.279Z,-1.86
2022-11-19T06:50:10.507Z,-1.87
2022-11-19T06:52:38.279Z,-1.79
2022-11-19T06:55:06.468Z,-1.72
2022-11-19T06:57:34.286Z,-1.63
2022-11-19T07:00:02.095Z,-1.61
2022-11-19T07:02:29.909Z,-1.59
2022-11-19T07:04:57.653Z,-1.50
2022-11-19T07:07:25.461Z,-1.42
2022-11-19T07:09:53.225Z,-1.34
2022-11-19T07:12:21.008Z,-1.24
2022-11-19T07:14:48.736Z,-1.11
2022-11-19T07:17:16.456Z,-1.00
2022-11-19T07:19:44.253Z,-0.87
2022-11-19T07:22:11.990Z,-0.77
2022-11-19T07:24:39.847Z,-0.69
2022-11-19T07:27:07.585Z,-0.60
2022-11-19T07:29:35.300Z,-0.57
2022-11-19T07:32:03.000Z,-0.58
2022-11-19T07:34:30.733Z,-0.51
2022-11-19T07:36:58.593Z,-0.42
2022-11-19T07:39:26.327Z,-0.34
2022-11-19T07:42:12.733Z,-0.27
2022-11-19T07:44:41.237Z,-0.23
2022-11-19T07:47:09.717Z,-0.14
2022-11-19T07:49:37.449Z,0.04
2022-11-19T07:52:05.216Z,0.18
2022-11-19T07:54:32.948Z,0.25
2022-11-19T07:57:00.814Z,0.38
2022-11-19T07:59:28.619Z,0.47
2022-11-19T08:01:56.454Z,0.54
2022-11-19T08:04:24.318Z,0.62
2022-11-19T08:06:51.997Z,0.75
2022-11-19T08:09:20.131Z,0.91
2022-11-19T08:11:48.399Z,1.16
2022-11-19T08:14:16.133Z,1.37
2022-11-19T08:17:02.375Z,1.54
2022-11-19T08:19:30.109Z,1.77
2022-11-19T08:21:57.834Z,1.93
2022-11-19T08:24:25.725Z,2.12
2022-11-19T08:26:53.533Z,2.20
2022-11-19T08:29:23.692Z,2.31
2022-11-19T08:31:51.838Z,2.48
2022-11-19T08:34:20.114Z,2.50
2022-11-19T08:36:48.308Z,2.48
2022-11-19T08:39:16.042Z,2.61
2022-11-19T08:42:02.613Z,2.69
2022-11-19T08:44:30.374Z,2.74
2022-11-19T08:46:58.068Z,2.86
2022-11-19T08:49:25.813Z,2.97
2022-11-19T08:51:53.671Z,3.15
2022-11-19T08:54:21.874Z,3.35
2022-11-19T08:56:50.097Z,3.45
2022-11-19T08:59:18.071Z,3.61
2022-11-19T09:01:46.054Z,3.78
2022-11-19T09:04:13.923Z,3.86
2022-11-19T09:06:41.683Z,3.92
2022-11-19T09:09:09.634Z,3.82
2022-11-19T09:11:42.412Z,3.75
2022-11-19T09:14:10.793Z,3.81
2022-11-19T09:16:38.843Z,4.02
2022-11-19T09:19:06.550Z,4.27
2022-11-19T09:21:34.307Z,4.39
2022-11-19T09:24:02.209Z,4.59
2022-11-19T09:26:30.040Z,4.82
2022-11-19T09:28:57.856Z,4.99
2022-11-19T09:31:25.644Z,5.05
2022-11-19T09:33:54.203Z,5.20
2022-11-19T09:36:22.193Z,5.37
2022-11-19T09:38:50.058Z,5.63
2022-11-19T09:41:17.769Z,5.85
2022-11-19T09:44:07.258Z,5.90
2022-11-19T09:46:38.100Z,6.09
2022-11-19T09:49:16.509Z,6.23
2022-11-19T09:51:50.687Z,6.37
2022-11-19T09:54:19.511Z,6.57
2022-11-19T09:56:47.898Z,6.71
2022-11-19T09:59:28.876Z,6.80
2022-11-19T10:01:57.580Z,6.63
2022-11-19T10:04:28.172Z,6.39
2022-11-19T10:07:06.757Z,6.20
2022-11-19T10:09:40.999Z,5.91
2022-11-19T10:12:29.260Z,5.82
2022-11-19T10:15:16.951Z,5.94
2022-11-19T10:17:53.851Z,6.15
2022-11-19T10:20:46.753Z,6.10
2022-11-19T10:23:17.600Z,5.98
2022-11-19T10:25:47.689Z,5.32
2022-11-19T10:28:22.076Z,5.30
2022-11-19T10:30:52.203Z,5.40
2022-11-19T10:33:31.676Z,5.56
2022-11-19T10:36:06.006Z,5.44
2022-11-19T10:38:41.152Z,5.13
2022-11-19T10:41:17.740Z,5.04
2022-11-19T10:44:00.518Z,5.04
2022-11-19T10:46:28.824Z,5.04
2022-11-19T10:48:58.789Z,5.13
2022-11-19T10:51:41.503Z,5.25
2022-11-19T10:54:28.867Z,5.41
2022-11-19T11:00:18.456Z,5.47
2022-11-19T11:07:50.145Z,5.95
2022-11-19T11:10:29.523Z,6.11
2022-11-19T11:20:46.144Z,6.61
2022-11-19T11:23:20.693Z,6.79
2022-11-19T11:26:09.172Z,7.00
2022-11-19T11:32:31.836Z,6.76
2022-11-19T11:35:02.362Z,6.70
2022-11-19T11:45:28.768Z,6.90
2022-11-19T11:48:36.711Z,6.60
2022-11-19T11:51:19.705Z,6.52
2022-11-19T11:54:19.443Z,6.57
2022-11-19T11:56:50.094Z,6.62
2022-11-19T11:59:33.352Z,6.57
2022-11-19T12:02:22.557Z,6.77
2022-11-19T12:05:01.173Z,7.01
2022-11-19T12:08:02.128Z,6.93
2022-11-19T12:10:36.162Z,6.26
2022-11-19T12:13:32.862Z,5.80
2022-11-19T12:16:14.687Z,5.69
2022-11-19T12:22:25.373Z,5.85
2022-11-19T12:25:30.674Z,6.11
2022-11-19T12:28:23.113Z,6.11
2022-11-19T12:31:29.731Z,6.41
2022-11-19T12:34:09.761Z,6.31
2022-11-19T12:36:48.614Z,6.25
2022-11-19T12:39:29.546Z,6.30
2022-11-19T12:42:10.013Z,6.53
2022-11-19T12:44:43.752Z,6.70
2022-11-19T12:47:22.231Z,6.87
2022-11-19T12:50:20.511Z,7.13
2022-11-19T12:53:14.924Z,7.30
2022-11-19T12:55:45.476Z,7.34
2022-11-19T12:58:47.695Z,7.48
2022-11-19T13:01:18.748Z,7.63
2022-11-19T13:04:03.673Z,7.79
2022-11-19T13:07:03.358Z,7.99
2022-11-19T13:09:37.172Z,8.14
2022-11-19T13:12:08.588Z,8.32
2022-11-19T13:14:46.750Z,8.72
2022-11-19T13:17:23.351Z,8.70
2022-11-19T13:19:57.889Z,8.91
2022-11-19T13:22:37.853Z,9.04
2022-11-19T13:25:15.966Z,9.05
2022-11-19T13:27:45.173Z,8.86
2022-11-19T13:30:18.956Z,8.87
2022-11-19T13:33:01.087Z,9.02
2022-11-19T13:35:55.087Z,9.55
2022-11-19T13:38:35.054Z,9.97
2022-11-19T13:41:14.960Z,10.15
2022-11-19T13:44:02.909Z,10.22
2022-11-19T13:46:55.021Z,10.38
2022-11-19T13:49:33.216Z,10.71
2022-11-19T13:52:07.893Z,11.03
2022-11-19T13:54:37.608Z,11.24
2022-11-19T13:57:07.394Z,11.39
2022-11-19T13:59:38.734Z,11.23
2022-11-19T14:02:25.284Z,10.92
2022-11-19T14:05:22.386Z,10.86
2022-11-19T14:08:13.172Z,11.08
2022-11-19T14:10:51.018Z,11.13
2022-11-19T14:13:48.374Z,11.04
2022-11-19T14:16:53.898Z,10.88
2022-11-19T14:19:22.037Z,10.81
2022-11-19T14:24:08.513Z,10.93
2022-11-19T14:26:43.345Z,10.85
2022-11-19T14:29:26.821Z,10.36
2022-11-19T14:32:00.435Z,10.10
2022-11-19T14:35:01.160Z,9.97
2022-11-19T14:39:01.509Z,9.85
2022-11-19T14:41:43.159Z,8.28
2022-11-19T14:44:26.943Z,7.35
2022-11-19T14:46:55.630Z,6.66
2022-11-19T14:49:35.702Z,6.12
2022-11-19T14:52:15.569Z,5.58
2022-11-19T14:54:57.737Z,5.11
2022-11-19T14:57:31.840Z,4.73
2022-11-19T15:00:24.497Z,4.39
2022-11-19T15:02:54.526Z,3.92
2022-11-19T15:05:28.151Z,3.64
2022-11-19T15:08:24.497Z,3.31
2022-11-19T15:11:14.177Z,3.00
2022-11-19T15:13:45.228Z,2.86
2022-11-19T15:16:23.191Z,2.76
2022-11-19T15:19:46.899Z,2.63
2022-11-19T15:22:26.725Z,2.37
2022-11-19T15:25:13.916Z,2.24
2022-11-19T15:28:09.650Z,2.13
2022-11-19T15:30:56.255Z,2.14
2022-11-19T15:33:51.910Z,2.07
2022-11-19T15:36:30.385Z,2.00
2022-11-19T15:39:02.948Z,1.91
2022-11-19T15:41:35.302Z,1.86
2022-11-19T15:44:09.555Z,1.76
2022-11-19T15:46:51.767Z,1.65
2022-11-19T15:49:36.823Z,1.58
2022-11-19T15:52:16.322Z,1.49
2022-11-19T15:54:45.995Z,1.42
2022-11-19T15:57:25.872Z,1.35
2022-11-19T16:00:00.939Z,1.34
2022-11-19T16:02:42.164Z,1.30
2022-11-19T16:05:29.265Z,1.30
2022-11-19T16:08:04.914Z,1.25
2022-11-19T16:10:39.355Z,1.25
2022-11-19T16:13:41.433Z,1.33
2022-11-19T16:16:48.385Z,1.38
2022-11-19T16:19:19.008Z,1.37
2022-11-19T16:21:51.643Z,1.43
2022-11-19T16:24:39.183Z,1.45
2022-11-19T16:27:11.031Z,1.45
2022-11-19T16:29:44.241Z,1.52
2022-11-19T16:32:19.400Z,1.56
2022-11-19T16:34:48.308Z,1.61
2022-11-19T16:37:19.912Z,1.63
2022-11-19T16:39:53.204Z,1.64
2022-11-19T16:42:26.694Z,1.61
2022-11-19T16:44:57.043Z,1.63
2022-11-19T16:47:29.031Z,1.66
2022-11-19T16:50:02.071Z,1.68
2022-11-19T16:52:46.478Z,1.77
2022-11-19T16:55:23.374Z,1.78
2022-11-19T16:58:03.247Z,1.78
2022-11-19T17:00:33.887Z,1.77
2022-11-19T17:03:29.387Z,1.74
2022-11-19T17:05:58.577Z,1.78
2022-11-19T17:08:31.074Z,1.75
2022-11-19T17:11:56.492Z,1.69
2022-11-19T17:14:30.276Z,1.67
2022-11-19T17:16:58.170Z,1.71
2022-11-19T17:19:26.604Z,1.74
2022-11-19T17:22:03.687Z,1.71
2022-11-19T17:24:37.045Z,1.69
2022-11-19T17:27:04.975Z,1.63
2022-11-19T17:29:33.013Z,1.59
2022-11-19T17:32:03.755Z,1.53
2022-11-19T17:34:33.861Z,1.48
2022-11-19T17:37:01.599Z,1.40
2022-11-19T17:39:29.620Z,1.27
2022-11-19T17:42:16.479Z,1.21
2022-11-19T17:44:44.290Z,1.17
2022-11-19T17:47:22.762Z,1.09
2022-11-19T17:49:52.277Z,1.05
2022-11-19T17:52:28.228Z,1.00
2022-11-19T17:55:18.220Z,0.99
2022-11-19T17:57:46.073Z,0.95
2022-11-19T18:00:14.901Z,0.92
2022-11-19T18:02:42.647Z,0.96
2022-11-19T18:05:16.249Z,0.98
2022-11-19T18:07:44.245Z,0.96
2022-11-19T18:10:13.081Z,0.98
2022-11-19T18:12:41.120Z,0.96
2022-11-19T18:15:15.434Z,0.91
2022-11-19T18:17:43.350Z,0.89
2022-11-19T18:20:11.369Z,0.86
2022-11-19T18:22:40.100Z,0.82
2022-11-19T18:25:14.745Z,0.74
2022-11-19T18:27:42.728Z,0.64
2022-11-19T18:30:12.584Z,0.58
2022-11-19T18:32:41.057Z,0.58
2022-11-19T18:35:17.962Z,0.59
2022-11-19T18:37:45.803Z,0.56
2022-11-19T18:40:14.374Z,0.57
2022-11-19T18:43:01.382Z,0.56
2022-11-19T18:45:29.268Z,0.54
2022-11-19T18:47:57.336Z,0.50
2022-11-19T18:50:29.567Z,0.46
2022-11-19T18:52:57.981Z,0.41
2022-11-19T18:55:25.727Z,0.32
2022-11-19T18:57:53.505Z,0.32
2022-11-19T19:00:21.377Z,0.32
2022-11-19T19:02:49.125Z,0.35
2022-11-19T19:05:17.274Z,0.37
2022-11-19T19:07:45.386Z,0.43
2022-11-19T19:10:13.911Z,0.48
2022-11-19T19:12:42.525Z,0.52
2022-11-19T19:15:10.486Z,0.39
2022-11-19T19:17:38.277Z,0.36
2022-11-19T19:20:06.797Z,0.41
2022-11-19T19:22:35.036Z,0.50
2022-11-19T19:25:05.243Z,0.54
2022-11-19T19:27:33.037Z,0.55
2022-11-19T19:30:01.507Z,0.56
2022-11-19T19:32:29.792Z,0.62
2022-11-19T19:34:57.642Z,0.68
2022-11-19T19:37:25.916Z,0.69
2022-11-19T19:39:53.830Z,0.72
2022-11-19T19:42:21.668Z,0.87
2022-11-19T19:44:49.389Z,1.04
2022-11-19T19:47:17.425Z,1.07
2022-11-19T19:49:45.400Z,1.12
2022-11-19T19:52:13.171Z,1.18
2022-11-19T19:54:42.118Z,1.23
2022-11-19T19:57:10.421Z,1.23
2022-11-19T19:59:38.796Z,1.25
2022-11-19T20:02:06.855Z,1.28
2022-11-19T20:04:34.794Z,1.29
2022-11-19T20:07:03.138Z,1.25
2022-11-19T20:09:31.060Z,1.26
2022-11-19T20:11:59.694Z,1.25
2022-11-19T20:14:27.666Z,1.24
2022-11-19T20:16:55.712Z,1.23
2022-11-19T20:19:24.002Z,1.17
2022-11-19T20:21:52.271Z,1.16
2022-11-19T20:24:21.845Z,1.17
2022-11-19T20:26:49.618Z,1.15
2022-11-19T20:29:20.320Z,1.07
2022-11-19T20:31:49.133Z,1.03
2022-11-19T20:34:17.818Z,0.99
2022-11-19T20:36:46.404Z,0.98
2022-11-19T20:39:14.392Z,0.91
2022-11-19T20:42:00.928Z,0.89
2022-11-19T20:44:28.780Z,0.90
2022-11-19T20:47:02.369Z,0.88
2022-11-19T20:49:36.224Z,0.89
2022-11-19T20:52:04.327Z,0.89
2022-11-19T20:54:32.413Z,0.88
2022-11-19T20:57:00.706Z,0.88
2022-11-19T20:59:29.837Z,0.88
2022-11-19T21:01:58.012Z,0.89
2022-11-19T21:04:27.240Z,0.89
2022-11-19T21:06:55.256Z,0.88
2022-11-19T21:09:23.321Z,0.88
2022-11-19T21:11:51.513Z,0.87
2022-11-19T21:14:19.287Z,0.83
2022-11-19T21:16:47.545Z,0.76
2022-11-19T21:19:15.910Z,0.74
2022-11-19T21:21:45.365Z,0.74
2022-11-19T21:24:14.529Z,0.74
2022-11-19T21:26:42.343Z,0.74
2022-11-19T21:29:10.337Z,0.70
2022-11-19T21:31:39.004Z,0.63
2022-11-19T21:34:11.805Z,0.62
2022-11-19T21:36:40.600Z,0.63
2022-11-19T21:39:09.102Z,0.61
2022-11-19T21:41:37.203Z,0.57
2022-11-19T21:44:05.907Z,0.57
2022-11-19T21:46:34.235Z,0.54
2022-11-19T21:49:02.237Z,0.53
2022-11-19T21:51:30.305Z,0.51
2022-11-19T21:53:58.502Z,0.41
2022-11-19T21:56:35.255Z,0.35
2022-11-19T21:59:07.030Z,0.30
2022-11-19T22:01:35.072Z,0.25
2022-11-19T22:04:02.958Z,0.21
2022-11-19T22:06:32.428Z,0.20
2022-11-19T22:09:01.684Z,0.19
2022-11-19T22:11:29.829Z,0.18
2022-11-19T22:14:06.715Z,0.15
2022-11-19T22:16:39.465Z,0.10
2022-11-19T22:19:07.461Z,0.01
2022-11-19T22:21:35.376Z,-0.05
2022-11-19T22:24:03.500Z,-0.10
2022-11-19T22:26:31.541Z,-0.11
2022-11-19T22:28:59.516Z,-0.14
2022-11-19T22:31:27.306Z,-0.17
2022-11-19T22:33:55.610Z,-0.21
2022-11-19T22:36:23.912Z,-0.37
2022-11-19T22:38:52.502Z,-0.44
2022-11-19T22:41:21.738Z,-0.46
2022-11-19T22:43:50.506Z,-0.48
2022-11-19T22:46:19.467Z,-0.45
2022-11-19T22:48:47.306Z,-0.42
2022-11-19T22:51:17.354Z,-0.39
2022-11-19T22:53:45.194Z,-0.34
2022-11-19T22:56:17.773Z,-0.29
2022-11-19T22:58:45.626Z,-0.29
2022-11-19T23:01:17.776Z,-0.31
2022-11-19T23:03:46.782Z,-0.31
2022-11-19T23:06:15.626Z,-0.31
2022-11-19T23:08:44.874Z,-0.32
2022-11-19T23:11:15.343Z,-0.30
2022-11-19T23:13:44.590Z,-0.28
2022-11-19T23:16:14.532Z,-0.29
2022-11-19T23:18:52.580Z,-0.30
2022-11-19T23:21:23.246Z,-0.34
2022-11-19T23:23:51.496Z,-0.25
2022-11-19T23:26:21.864Z,-0.28
2022-11-19T23:28:50.034Z,-0.28
2022-11-19T23:31:22.929Z,-0.30
2022-11-19T23:33:55.897Z,-0.33
2022-11-19T23:36:27.665Z,-0.42
2022-11-19T23:38:55.548Z,-0.50
2022-11-19T23:41:23.464Z,-0.55
2022-11-19T23:43:53.840Z,-0.54
2022-11-19T23:46:24.624Z,-0.49
2022-11-19T23:48:52.730Z,-0.46
2022-11-19T23:51:26.468Z,-0.46
2022-11-19T23:53:55.533Z,-0.52
2022-11-19T23:56:24.724Z,-0.63
2022-11-19T23:58:52.757Z,-0.71
